createdAt,value
2022-08-11T00:03:54.273Z,20.16
2022-08-11T00:09:00.724Z,20.13
2022-08-11T00:14:05.475Z,20.07
2022-08-11T00:19:07.832Z,19.98
2022-08-11T00:24:09.885Z,19.85
2022-08-11T00:29:12.594Z,19.79
2022-08-11T00:34:30.195Z,19.71
2022-08-11T00:39:42.538Z,19.65
2022-08-11T00:44:59.604Z,19.58
2022-08-11T00:50:10.338Z,19.53
2022-08-11T00:55:37.179Z,19.46
2022-08-11T01:01:15.998Z,19.40
2022-08-11T01:06:51.281Z,19.30
2022-08-11T01:12:17.380Z,19.20
2022-08-11T01:17:50.437Z,19.14
2022-08-11T01:23:17.385Z,19.07
2022-08-11T01:28:56.931Z,19.03
2022-08-11T01:34:04.880Z,18.98
2022-08-11T01:39:52.717Z,18.91
2022-08-11T01:45:17.537Z,18.84
2022-08-11T01:50:28.184Z,18.74
2022-08-11T01:55:58.076Z,18.69
2022-08-11T02:01:11.059Z,18.63
2022-08-11T02:06:31.560Z,18.59
2022-08-11T02:11:39.285Z,18.53
2022-08-11T02:16:42.817Z,18.43
2022-08-11T02:22:13.904Z,18.36
2022-08-11T02:27:30.921Z,18.29
2022-08-11T02:33:24.506Z,18.21
2022-08-11T02:38:46.747Z,18.14
2022-08-11T02:44:17.250Z,18.07
2022-08-11T02:50:06.164Z,18.00
2022-08-11T02:55:48.047Z,17.96
2022-08-11T03:00:49.960Z,17.92
2022-08-11T03:06:19.943Z,17.84
2022-08-11T03:11:40.230Z,17.77
2022-08-11T03:17:00.940Z,17.75
2022-08-11T03:22:06.626Z,17.69
2022-08-11T03:27:11.172Z,17.62
2022-08-11T03:32:29.943Z,17.59
2022-08-11T03:37:56.986Z,17.58
2022-08-11T03:43:03.937Z,17.48
2022-08-11T03:48:23.286Z,17.45
2022-08-11T03:54:03.199Z,17.40
2022-08-11T03:59:24.696Z,17.30
2022-08-11T04:04:31.656Z,17.26
2022-08-11T04:09:48.594Z,17.21
2022-08-11T04:15:18.436Z,17.15
2022-08-11T04:20:48.773Z,17.15
2022-08-11T04:26:15.987Z,17.14
2022-08-11T04:31:51.857Z,17.16
2022-08-11T04:37:29.092Z,17.20
2022-08-11T04:43:13.287Z,17.26
2022-08-11T04:49:05.826Z,17.31
2022-08-11T04:54:47.823Z,17.38
2022-08-11T05:00:30.897Z,17.47
2022-08-11T05:05:41.776Z,17.57
2022-08-11T05:11:20.084Z,17.64
2022-08-11T05:16:48.671Z,17.72
2022-08-11T05:22:16.299Z,17.80
2022-08-11T05:27:38.653Z,17.88
2022-08-11T05:33:02.286Z,17.96
2022-08-11T05:38:29.323Z,18.07
2022-08-11T05:44:21.710Z,18.16
2022-08-11T05:49:33.529Z,18.26
2022-08-11T05:55:06.162Z,18.32
2022-08-11T06:00:12.498Z,18.44
2022-08-11T06:05:16.337Z,18.53
2022-08-11T06:10:36.205Z,18.62
2022-08-11T06:15:46.569Z,18.69
2022-08-11T06:20:50.294Z,18.83
2022-08-11T06:25:56.683Z,18.92
2022-08-11T06:31:01.181Z,19.04
2022-08-11T06:36:24.244Z,19.16
2022-08-11T06:41:47.359Z,19.30
2022-08-11T06:46:53.294Z,19.41
2022-08-11T06:51:56.977Z,19.55
2022-08-11T06:57:29.914Z,19.69
2022-08-11T07:02:37.288Z,19.82
2022-08-11T07:08:34.901Z,19.94
2022-08-11T07:13:52.392Z,20.09
2022-08-11T07:19:20.290Z,20.29
2022-08-11T07:24:59.256Z,20.50
2022-08-11T07:30:09.374Z,20.71
2022-08-11T07:35:19.566Z,20.90
2022-08-11T07:40:24.995Z,21.07
2022-08-11T07:45:46.414Z,21.20
2022-08-11T07:51:07.570Z,21.40
2022-08-11T07:56:09.421Z,21.54
2022-08-11T08:01:41.199Z,21.72
2022-08-11T08:07:06.403Z,21.91
2022-08-11T08:12:29.584Z,22.05
2022-08-11T08:18:08.363Z,22.21
2022-08-11T08:23:14.248Z,22.41
2022-08-11T08:28:17.837Z,22.60
2022-08-11T08:33:27.943Z,22.74
2022-08-11T08:38:29.900Z,22.90
2022-08-11T08:43:48.473Z,23.03
2022-08-11T08:48:53.302Z,23.23
2022-08-11T08:54:11.784Z,23.44
2022-08-11T08:59:18.056Z,23.62
2022-08-11T09:04:22.471Z,23.78
2022-08-11T09:09:26.394Z,23.95
2022-08-11T09:14:57.430Z,24.12
2022-08-11T09:20:14.050Z,24.27
2022-08-11T09:25:40.548Z,24.42
2022-08-11T09:30:48.927Z,24.69
2022-08-11T09:35:52.608Z,24.85
2022-08-11T09:40:57.001Z,25.02
2022-08-11T09:46:01.710Z,25.13
2022-08-11T09:51:07.002Z,25.26
2022-08-11T09:56:41.784Z,25.40
2022-08-11T10:01:47.529Z,25.47
2022-08-11T10:07:04.612Z,25.61
2022-08-11T10:12:14.754Z,25.74
2022-08-11T10:17:21.827Z,25.87
2022-08-11T10:22:42.557Z,26.02
2022-08-11T10:28:17.603Z,26.15
2022-08-11T10:33:36.855Z,26.27
2022-08-11T10:38:45.841Z,26.40
2022-08-11T10:44:01.279Z,26.43
2022-08-11T10:49:07.221Z,26.46
2022-08-11T10:54:30.319Z,26.54
2022-08-11T10:59:34.224Z,26.63
2022-08-11T11:05:09.290Z,26.70
2022-08-11T11:10:11.507Z,26.84
2022-08-11T11:15:33.070Z,27.02
2022-08-11T11:20:59.101Z,27.06
2022-08-11T11:26:06.975Z,27.23
2022-08-11T11:31:29.821Z,27.34
2022-08-11T11:36:50.659Z,27.63
2022-08-11T11:41:59.564Z,27.90
2022-08-11T11:47:01.805Z,28.15
2022-08-11T11:52:06.946Z,28.37
2022-08-11T11:57:31.298Z,28.59
2022-08-11T12:02:36.460Z,28.86
2022-08-11T12:08:12.394Z,29.13
2022-08-11T12:13:45.136Z,29.38
2022-08-11T12:18:49.583Z,29.56
2022-08-11T12:24:15.104Z,29.59
2022-08-11T12:29:19.893Z,29.71
2022-08-11T12:34:24.723Z,30.25
2022-08-11T12:40:10.964Z,30.39
2022-08-11T12:45:29.992Z,30.60
2022-08-11T12:50:52.043Z,31.06
2022-08-11T12:56:19.900Z,31.64
2022-08-11T13:01:42.042Z,32.12
2022-08-11T13:06:43.967Z,32.57
2022-08-11T13:12:04.807Z,32.83
2022-08-11T13:17:21.824Z,33.21
2022-08-11T13:22:52.021Z,33.69
2022-08-11T13:27:57.042Z,33.64
2022-08-11T13:33:06.402Z,34.01
2022-08-11T13:38:19.157Z,34.05
2022-08-11T13:43:25.504Z,34.27
2022-08-11T13:48:28.344Z,34.60
2022-08-11T13:53:30.959Z,34.83
2022-08-11T13:58:39.525Z,34.70
2022-08-11T14:04:30.491Z,34.67
2022-08-11T14:09:12.904Z,34.79
2022-08-11T14:14:22.801Z,35.07
2022-08-11T14:19:26.314Z,35.01
2022-08-11T14:24:30.928Z,35.05
2022-08-11T14:29:34.441Z,35.37
2022-08-11T14:34:53.137Z,35.80
2022-08-11T14:40:21.540Z,36.40
2022-08-11T14:45:57.903Z,37.03
2022-08-11T14:51:00.763Z,37.59
2022-08-11T14:56:21.312Z,37.84
2022-08-11T15:01:41.987Z,38.10
2022-08-11T15:06:43.835Z,38.18
2022-08-11T15:12:07.383Z,38.57
2022-08-11T15:17:42.926Z,39.39
2022-08-11T15:23:07.087Z,39.93
2022-08-11T15:28:28.694Z,40.15
2022-08-11T15:33:54.632Z,40.49
2022-08-11T15:39:21.037Z,40.68
2022-08-11T15:45:01.688Z,40.95
2022-08-11T15:50:10.926Z,41.07
2022-08-11T15:55:24.696Z,41.06
2022-08-11T16:00:45.650Z,41.38
2022-08-11T16:05:53.138Z,41.25
2022-08-11T16:10:58.919Z,41.08
2022-08-11T16:16:17.280Z,41.40
2022-08-11T16:21:34.371Z,41.30
2022-08-11T16:27:11.200Z,41.06
2022-08-11T16:32:20.562Z,41.17
2022-08-11T16:37:45.282Z,41.20
2022-08-11T16:43:10.887Z,40.26
2022-08-11T16:48:36.520Z,37.28
2022-08-11T16:54:00.053Z,35.07
2022-08-11T16:59:18.496Z,33.69
2022-08-11T17:04:49.070Z,32.81
2022-08-11T17:10:39.716Z,32.00
2022-08-11T17:16:07.314Z,31.39
2022-08-11T17:21:17.852Z,30.82
2022-08-11T17:26:21.249Z,31.13
2022-08-11T17:31:45.173Z,30.15
2022-08-11T17:36:49.078Z,29.75
2022-08-11T17:42:13.112Z,29.39
2022-08-11T17:47:35.261Z,29.14
2022-08-11T17:53:06.241Z,28.82
2022-08-11T17:58:29.374Z,28.42
2022-08-11T18:03:39.256Z,28.14
2022-08-11T18:09:03.825Z,27.96
2022-08-11T18:14:26.626Z,27.74
2022-08-11T18:19:50.908Z,27.52
2022-08-11T18:25:20.927Z,27.32
2022-08-11T18:30:43.074Z,27.07
2022-08-11T18:36:09.786Z,26.83
2022-08-11T18:41:31.320Z,26.65
2022-08-11T18:46:55.330Z,26.48
2022-08-11T18:52:18.185Z,26.89
2022-08-11T18:57:49.737Z,26.33
2022-08-11T19:03:15.809Z,26.50
2022-08-11T19:08:40.235Z,26.00
2022-08-11T19:14:02.098Z,25.82
2022-08-11T19:19:25.453Z,25.63
2022-08-11T19:24:49.424Z,25.49
2022-08-11T19:30:14.283Z,25.37
2022-08-11T19:35:37.612Z,25.23
2022-08-11T19:40:58.653Z,25.05
2022-08-11T19:46:20.017Z,24.91
2022-08-11T19:51:40.998Z,24.75
2022-08-11T19:57:03.440Z,24.66
2022-08-11T20:02:29.191Z,24.45
2022-08-11T20:07:50.876Z,24.37
2022-08-11T20:13:21.233Z,24.23
2022-08-11T20:18:44.444Z,24.13
2022-08-11T20:24:08.453Z,23.99
2022-08-11T20:29:30.186Z,24.09
2022-08-11T20:34:50.839Z,24.02
2022-08-11T20:40:16.811Z,23.88
2022-08-11T20:45:53.550Z,23.79
2022-08-11T20:51:18.303Z,23.71
2022-08-11T20:56:41.973Z,23.58
2022-08-11T21:02:09.949Z,23.48
2022-08-11T21:07:30.876Z,23.45
2022-08-11T21:12:55.444Z,23.36
2022-08-11T21:18:28.291Z,23.35
2022-08-11T21:23:54.113Z,23.30
2022-08-11T21:29:18.427Z,23.29
2022-08-11T21:34:40.921Z,23.26
2022-08-11T21:40:02.283Z,23.23
2022-08-11T21:45:26.494Z,23.19
2022-08-11T21:50:47.663Z,23.11
2022-08-11T21:56:10.962Z,23.06
2022-08-11T22:01:34.461Z,23.01
2022-08-11T22:06:59.163Z,23.00
2022-08-11T22:12:29.578Z,22.95
2022-08-11T22:17:58.168Z,22.89
2022-08-11T22:23:19.594Z,22.86
2022-08-11T22:28:42.167Z,22.77
2022-08-11T22:34:04.845Z,22.69
2022-08-11T22:39:27.892Z,22.62
2022-08-11T22:44:54.376Z,22.53
2022-08-11T22:50:17.265Z,22.44
2022-08-11T22:55:41.925Z,22.36
2022-08-11T23:01:02.990Z,22.30
2022-08-11T23:06:23.437Z,22.21
2022-08-11T23:12:04.718Z,22.14
2022-08-11T23:17:34.645Z,22.05
2022-08-11T23:22:55.983Z,21.97
2022-08-11T23:28:20.232Z,21.87
2022-08-11T23:33:43.048Z,21.78
2022-08-11T23:39:03.452Z,21.69
2022-08-11T23:44:28.043Z,21.60
2022-08-11T23:49:49.503Z,21.51
2022-08-11T23:55:10.142Z,21.45
